sensor_id;sensor_type;location;lat;lon;timestamp;temperature;humidity
13606;DHT22;6874;52.084;5.090;2023-02-15T00:01:35;4.70;99.90
13606;DHT22;6874;52.084;5.090;2023-02-15T00:04:02;4.70;99.90
13606;DHT22;6874;52.084;5.090;2023-02-15T00:06:28;4.70;99.90
13606;DHT22;6874;52.084;5.090;2023-02-15T00:08:54;4.70;99.90
13606;DHT22;6874;52.084;5.090;2023-02-15T00:11:20;4.70;99.90
13606;DHT22;6874;52.084;5.090;2023-02-15T00:16:31;4.60;99.90
13606;DHT22;6874;52.084;5.090;2023-02-15T00:18:56;4.60;99.90
13606;DHT22;6874;52.084;5.090;2023-02-15T00:21:22;4.60;99.90
13606;DHT22;6874;52.084;5.090;2023-02-15T00:23:47;4.60;99.90
13606;DHT22;6874;52.084;5.090;2023-02-15T00:26:13;4.60;99.90
13606;DHT22;6874;52.084;5.090;2023-02-15T00:28:39;4.50;99.90
13606;DHT22;6874;52.084;5.090;2023-02-15T00:31:11;4.50;99.90
13606;DHT22;6874;52.084;5.090;2023-02-15T00:33:38;4.50;99.90
13606;DHT22;6874;52.084;5.090;2023-02-15T00:36:06;4.50;99.90
13606;DHT22;6874;52.084;5.090;2023-02-15T00:38:32;4.50;99.90
13606;DHT22;6874;52.084;5.090;2023-02-15T00:40:59;4.40;99.90
13606;DHT22;6874;52.084;5.090;2023-02-15T00:43:26;4.40;99.90
13606;DHT22;6874;52.084;5.090;2023-02-15T00:45:52;4.40;99.90
13606;DHT22;6874;52.084;5.090;2023-02-15T00:48:18;4.40;99.90
13606;DHT22;6874;52.084;5.090;2023-02-15T00:50:52;4.40;99.90
13606;DHT22;6874;52.084;5.090;2023-02-15T00:53:19;4.30;99.90
13606;DHT22;6874;52.084;5.090;2023-02-15T00:55:45;4.30;99.90
13606;DHT22;6874;52.084;5.090;2023-02-15T00:58:11;4.30;99.90
13606;DHT22;6874;52.084;5.090;2023-02-15T01:00:37;4.30;99.90
13606;DHT22;6874;52.084;5.090;2023-02-15T01:03:04;4.30;99.90
13606;DHT22;6874;52.084;5.090;2023-02-15T01:05:30;4.30;99.90
13606;DHT22;6874;52.084;5.090;2023-02-15T01:07:56;4.30;99.90
13606;DHT22;6874;52.084;5.090;2023-02-15T01:10:22;4.20;99.90
13606;DHT22;6874;52.084;5.090;2023-02-15T01:12:50;4.20;99.90
13606;DHT22;6874;52.084;5.090;2023-02-15T01:15:15;4.20;99.90
13606;DHT22;6874;52.084;5.090;2023-02-15T01:17:41;4.20;99.90
13606;DHT22;6874;52.084;5.090;2023-02-15T01:20:07;4.20;99.90
13606;DHT22;6874;52.084;5.090;2023-02-15T01:22:33;4.20;99.90
13606;DHT22;6874;52.084;5.090;2023-02-15T01:24:59;4.20;99.90
13606;DHT22;6874;52.084;5.090;2023-02-15T01:27:24;4.20;99.90
13606;DHT22;6874;52.084;5.090;2023-02-15T01:29:50;4.10;99.90
13606;DHT22;6874;52.084;5.090;2023-02-15T01:32:15;4.10;99.90
13606;DHT22;6874;52.084;5.090;2023-02-15T01:34:41;4.20;99.90
13606;DHT22;6874;52.084;5.090;2023-02-15T01:37:06;4.10;99.90
13606;DHT22;6874;52.084;5.090;2023-02-15T01:39:32;4.10;99.90
13606;DHT22;6874;52.084;5.090;2023-02-15T01:41:57;4.10;99.90
13606;DHT22;6874;52.084;5.090;2023-02-15T01:44:55;4.10;99.90
13606;DHT22;6874;52.084;5.090;2023-02-15T01:47:35;4.10;99.90
13606;DHT22;6874;52.084;5.090;2023-02-15T01:50:23;4.10;99.90
13606;DHT22;6874;52.084;5.090;2023-02-15T01:52:55;4.00;99.90
13606;DHT22;6874;52.084;5.090;2023-02-15T01:55:25;4.10;99.90
13606;DHT22;6874;52.084;5.090;2023-02-15T01:57:52;4.00;99.90
13606;DHT22;6874;52.084;5.090;2023-02-15T02:00:18;4.00;99.90
13606;DHT22;6874;52.084;5.090;2023-02-15T02:02:45;4.00;99.90
13606;DHT22;6874;52.084;5.090;2023-02-15T02:05:12;4.00;99.90
13606;DHT22;6874;52.084;5.090;2023-02-15T02:07:40;4.00;99.90
13606;DHT22;6874;52.084;5.090;2023-02-15T02:10:11;4.00;99.90
13606;DHT22;6874;52.084;5.090;2023-02-15T02:12:37;4.00;99.90
13606;DHT22;6874;52.084;5.090;2023-02-15T02:15:05;4.00;99.90
13606;DHT22;6874;52.084;5.090;2023-02-15T02:20:25;3.90;99.90
13606;DHT22;6874;52.084;5.090;2023-02-15T02:23:15;3.90;99.90
13606;DHT22;6874;52.084;5.090;2023-02-15T02:29:05;3.90;99.90
13606;DHT22;6874;52.084;5.090;2023-02-15T02:36:54;3.90;99.90
13606;DHT22;6874;52.084;5.090;2023-02-15T02:39:37;3.80;99.90
13606;DHT22;6874;52.084;5.090;2023-02-15T02:44:47;3.80;99.90
13606;DHT22;6874;52.084;5.090;2023-02-15T02:47:26;3.80;99.90
13606;DHT22;6874;52.084;5.090;2023-02-15T02:50:00;3.80;99.90
13606;DHT22;6874;52.084;5.090;2023-02-15T02:55:13;3.80;99.90
13606;DHT22;6874;52.084;5.090;2023-02-15T02:58:07;3.80;99.90
13606;DHT22;6874;52.084;5.090;2023-02-15T03:00:50;3.70;99.90
13606;DHT22;6874;52.084;5.090;2023-02-15T03:03:27;3.70;99.90
13606;DHT22;6874;52.084;5.090;2023-02-15T03:05:58;3.70;99.90
13606;DHT22;6874;52.084;5.090;2023-02-15T03:08:28;3.70;99.90
13606;DHT22;6874;52.084;5.090;2023-02-15T03:10:58;3.70;99.90
13606;DHT22;6874;52.084;5.090;2023-02-15T03:13:25;3.70;99.90
13606;DHT22;6874;52.084;5.090;2023-02-15T03:15:52;3.70;99.90
13606;DHT22;6874;52.084;5.090;2023-02-15T03:18:47;3.70;99.90
13606;DHT22;6874;52.084;5.090;2023-02-15T03:21:26;3.60;99.90
13606;DHT22;6874;52.084;5.090;2023-02-15T03:23:55;3.60;99.90
13606;DHT22;6874;52.084;5.090;2023-02-15T03:26:24;3.60;99.90
13606;DHT22;6874;52.084;5.090;2023-02-15T03:28:53;3.60;99.90
13606;DHT22;6874;52.084;5.090;2023-02-15T03:31:22;3.60;99.90
13606;DHT22;6874;52.084;5.090;2023-02-15T03:33:53;3.60;99.90
13606;DHT22;6874;52.084;5.090;2023-02-15T03:41:41;3.60;99.90
13606;DHT22;6874;52.084;5.090;2023-02-15T03:44:14;3.60;99.90
13606;DHT22;6874;52.084;5.090;2023-02-15T03:46:53;3.60;99.90
13606;DHT22;6874;52.084;5.090;2023-02-15T03:49:25;3.50;99.90
13606;DHT22;6874;52.084;5.090;2023-02-15T03:51:55;3.50;99.90
13606;DHT22;6874;52.084;5.090;2023-02-15T03:54:30;3.50;99.90
13606;DHT22;6874;52.084;5.090;2023-02-15T03:57:19;3.50;99.90
13606;DHT22;6874;52.084;5.090;2023-02-15T04:05:25;3.50;99.90
13606;DHT22;6874;52.084;5.090;2023-02-15T04:07:51;3.50;99.90
13606;DHT22;6874;52.084;5.090;2023-02-15T04:10:16;3.40;99.90
13606;DHT22;6874;52.084;5.090;2023-02-15T04:13:00;3.40;99.90
13606;DHT22;6874;52.084;5.090;2023-02-15T04:15:26;3.40;99.90
13606;DHT22;6874;52.084;5.090;2023-02-15T04:18:10;3.40;99.90
13606;DHT22;6874;52.084;5.090;2023-02-15T04:20:36;3.40;99.90
13606;DHT22;6874;52.084;5.090;2023-02-15T04:23:20;3.40;99.90
13606;DHT22;6874;52.084;5.090;2023-02-15T04:26:04;3.40;99.90
13606;DHT22;6874;52.084;5.090;2023-02-15T04:28:30;3.40;99.90
13606;DHT22;6874;52.084;5.090;2023-02-15T04:30:56;3.40;99.90
13606;DHT22;6874;52.084;5.090;2023-02-15T04:33:22;3.40;99.90
13606;DHT22;6874;52.084;5.090;2023-02-15T04:35:47;3.30;99.90
13606;DHT22;6874;52.084;5.090;2023-02-15T04:38:13;3.40;99.90
13606;DHT22;6874;52.084;5.090;2023-02-15T04:40:38;3.30;99.90
13606;DHT22;6874;52.084;5.090;2023-02-15T04:43:04;3.30;99.90
13606;DHT22;6874;52.084;5.090;2023-02-15T04:45:29;3.30;99.90
13606;DHT22;6874;52.084;5.090;2023-02-15T04:47:55;3.30;99.90
13606;DHT22;6874;52.084;5.090;2023-02-15T04:50:21;3.30;99.90
13606;DHT22;6874;52.084;5.090;2023-02-15T04:52:46;3.30;99.90
13606;DHT22;6874;52.084;5.090;2023-02-15T04:55:12;3.30;99.90
13606;DHT22;6874;52.084;5.090;2023-02-15T04:57:39;3.20;99.90
13606;DHT22;6874;52.084;5.090;2023-02-15T05:00:05;3.20;99.90
13606;DHT22;6874;52.084;5.090;2023-02-15T05:02:31;3.20;99.90
13606;DHT22;6874;52.084;5.090;2023-02-15T05:04:56;3.20;99.90
13606;DHT22;6874;52.084;5.090;2023-02-15T05:07:22;3.20;99.90
13606;DHT22;6874;52.084;5.090;2023-02-15T05:09:48;3.20;99.90
13606;DHT22;6874;52.084;5.090;2023-02-15T05:12:13;3.20;99.90
13606;DHT22;6874;52.084;5.090;2023-02-15T05:14:39;3.20;99.90
13606;DHT22;6874;52.084;5.090;2023-02-15T05:17:04;3.20;99.90
13606;DHT22;6874;52.084;5.090;2023-02-15T05:19:30;3.20;99.90
13606;DHT22;6874;52.084;5.090;2023-02-15T05:21:56;3.20;99.90
13606;DHT22;6874;52.084;5.090;2023-02-15T05:24:21;3.20;99.90
13606;DHT22;6874;52.084;5.090;2023-02-15T05:27:06;3.10;99.90
13606;DHT22;6874;52.084;5.090;2023-02-15T05:29:51;3.10;99.90
13606;DHT22;6874;52.084;5.090;2023-02-15T05:32:16;3.10;99.90
13606;DHT22;6874;52.084;5.090;2023-02-15T05:34:42;3.10;99.90
13606;DHT22;6874;52.084;5.090;2023-02-15T05:37:08;3.10;99.90
13606;DHT22;6874;52.084;5.090;2023-02-15T05:39:33;3.10;99.90
13606;DHT22;6874;52.084;5.090;2023-02-15T05:42:00;3.10;99.90
13606;DHT22;6874;52.084;5.090;2023-02-15T05:44:25;3.10;99.90
13606;DHT22;6874;52.084;5.090;2023-02-15T05:46:51;3.00;99.90
13606;DHT22;6874;52.084;5.090;2023-02-15T05:49:16;3.00;99.90
13606;DHT22;6874;52.084;5.090;2023-02-15T05:51:42;3.00;99.90
13606;DHT22;6874;52.084;5.090;2023-02-15T05:54:07;3.00;99.90
13606;DHT22;6874;52.084;5.090;2023-02-15T05:56:33;3.00;99.90
13606;DHT22;6874;52.084;5.090;2023-02-15T05:58:59;3.00;99.90
13606;DHT22;6874;52.084;5.090;2023-02-15T06:01:24;3.00;99.90
13606;DHT22;6874;52.084;5.090;2023-02-15T06:03:50;3.00;99.90
13606;DHT22;6874;52.084;5.090;2023-02-15T06:06:15;3.00;99.90
13606;DHT22;6874;52.084;5.090;2023-02-15T06:08:41;3.00;99.90
13606;DHT22;6874;52.084;5.090;2023-02-15T06:11:07;2.90;99.90
13606;DHT22;6874;52.084;5.090;2023-02-15T06:13:34;2.90;99.90
13606;DHT22;6874;52.084;5.090;2023-02-15T06:15:59;2.90;99.90
13606;DHT22;6874;52.084;5.090;2023-02-15T06:18:25;2.90;99.90
13606;DHT22;6874;52.084;5.090;2023-02-15T06:20:52;2.90;99.90
13606;DHT22;6874;52.084;5.090;2023-02-15T06:23:18;2.90;99.90
13606;DHT22;6874;52.084;5.090;2023-02-15T06:25:45;2.90;99.90
13606;DHT22;6874;52.084;5.090;2023-02-15T06:28:11;2.80;99.90
13606;DHT22;6874;52.084;5.090;2023-02-15T06:30:37;2.90;99.90
13606;DHT22;6874;52.084;5.090;2023-02-15T06:33:02;2.80;99.90
13606;DHT22;6874;52.084;5.090;2023-02-15T06:35:28;2.80;99.90
13606;DHT22;6874;52.084;5.090;2023-02-15T06:37:53;2.80;99.90
13606;DHT22;6874;52.084;5.090;2023-02-15T06:40:19;2.80;99.90
13606;DHT22;6874;52.084;5.090;2023-02-15T06:42:45;2.80;99.90
13606;DHT22;6874;52.084;5.090;2023-02-15T06:45:11;2.80;99.90
13606;DHT22;6874;52.084;5.090;2023-02-15T06:47:37;2.80;99.90
13606;DHT22;6874;52.084;5.090;2023-02-15T06:50:04;2.70;99.90
13606;DHT22;6874;52.084;5.090;2023-02-15T06:52:29;2.70;99.90
13606;DHT22;6874;52.084;5.090;2023-02-15T06:54:56;2.70;99.90
13606;DHT22;6874;52.084;5.090;2023-02-15T06:57:22;2.70;99.90
13606;DHT22;6874;52.084;5.090;2023-02-15T06:59:47;2.70;99.90
13606;DHT22;6874;52.084;5.090;2023-02-15T07:02:13;2.70;99.90
13606;DHT22;6874;52.084;5.090;2023-02-15T07:04:39;2.60;99.90
13606;DHT22;6874;52.084;5.090;2023-02-15T07:07:08;2.70;99.90
13606;DHT22;6874;52.084;5.090;2023-02-15T07:09:34;2.70;99.90
13606;DHT22;6874;52.084;5.090;2023-02-15T07:12:00;2.60;99.90
13606;DHT22;6874;52.084;5.090;2023-02-15T07:14:44;2.60;99.90
13606;DHT22;6874;52.084;5.090;2023-02-15T07:17:09;2.60;99.90
13606;DHT22;6874;52.084;5.090;2023-02-15T07:19:36;2.60;99.90
13606;DHT22;6874;52.084;5.090;2023-02-15T07:22:01;2.60;99.90
13606;DHT22;6874;52.084;5.090;2023-02-15T07:24:29;2.60;99.90
13606;DHT22;6874;52.084;5.090;2023-02-15T07:26:54;2.50;99.90
13606;DHT22;6874;52.084;5.090;2023-02-15T07:29:20;2.60;99.90
13606;DHT22;6874;52.084;5.090;2023-02-15T07:31:45;2.60;99.90
13606;DHT22;6874;52.084;5.090;2023-02-15T07:34:11;2.60;99.90
13606;DHT22;6874;52.084;5.090;2023-02-15T07:36:37;2.50;99.90
13606;DHT22;6874;52.084;5.090;2023-02-15T07:39:03;2.50;99.90
13606;DHT22;6874;52.084;5.090;2023-02-15T07:41:28;2.50;99.90
13606;DHT22;6874;52.084;5.090;2023-02-15T07:43:54;2.50;99.90
13606;DHT22;6874;52.084;5.090;2023-02-15T07:46:19;2.50;99.90
13606;DHT22;6874;52.084;5.090;2023-02-15T07:48:46;2.50;99.90
13606;DHT22;6874;52.084;5.090;2023-02-15T07:51:12;2.50;99.90
13606;DHT22;6874;52.084;5.090;2023-02-15T07:53:39;2.50;99.90
13606;DHT22;6874;52.084;5.090;2023-02-15T07:56:08;2.50;99.90
13606;DHT22;6874;52.084;5.090;2023-02-15T07:58:34;2.50;99.90
13606;DHT22;6874;52.084;5.090;2023-02-15T08:01:27;2.50;99.90
13606;DHT22;6874;52.084;5.090;2023-02-15T08:03:54;2.50;99.90
13606;DHT22;6874;52.084;5.090;2023-02-15T08:06:22;2.50;99.90
13606;DHT22;6874;52.084;5.090;2023-02-15T08:08:48;2.50;99.90
13606;DHT22;6874;52.084;5.090;2023-02-15T08:14:10;2.50;99.90
13606;DHT22;6874;52.084;5.090;2023-02-15T08:16:53;2.50;99.90
13606;DHT22;6874;52.084;5.090;2023-02-15T08:19:30;2.50;99.90
13606;DHT22;6874;52.084;5.090;2023-02-15T08:21:59;2.50;99.90
13606;DHT22;6874;52.084;5.090;2023-02-15T08:24:27;2.50;99.90
13606;DHT22;6874;52.084;5.090;2023-02-15T08:26:54;2.50;99.90
13606;DHT22;6874;52.084;5.090;2023-02-15T08:29:22;2.50;99.90
13606;DHT22;6874;52.084;5.090;2023-02-15T08:31:48;2.50;99.90
13606;DHT22;6874;52.084;5.090;2023-02-15T08:34:17;2.50;99.90
13606;DHT22;6874;52.084;5.090;2023-02-15T08:36:43;2.50;99.90
13606;DHT22;6874;52.084;5.090;2023-02-15T08:39:13;2.60;99.90
13606;DHT22;6874;52.084;5.090;2023-02-15T08:41:42;2.60;99.90
13606;DHT22;6874;52.084;5.090;2023-02-15T08:44:09;2.60;99.90
13606;DHT22;6874;52.084;5.090;2023-02-15T08:46:39;2.60;99.90
13606;DHT22;6874;52.084;5.090;2023-02-15T08:49:05;2.60;99.90
13606;DHT22;6874;52.084;5.090;2023-02-15T08:51:33;2.60;99.90
13606;DHT22;6874;52.084;5.090;2023-02-15T08:54:01;2.60;99.90
13606;DHT22;6874;52.084;5.090;2023-02-15T08:56:28;2.60;99.90
13606;DHT22;6874;52.084;5.090;2023-02-15T08:58:55;2.60;99.90
13606;DHT22;6874;52.084;5.090;2023-02-15T09:01:24;2.70;99.90
13606;DHT22;6874;52.084;5.090;2023-02-15T09:03:54;2.70;99.90
13606;DHT22;6874;52.084;5.090;2023-02-15T09:06:21;2.70;99.90
13606;DHT22;6874;52.084;5.090;2023-02-15T09:08:47;2.70;99.90
13606;DHT22;6874;52.084;5.090;2023-02-15T09:11:18;2.70;99.90
13606;DHT22;6874;52.084;5.090;2023-02-15T09:14:02;2.80;99.90
13606;DHT22;6874;52.084;5.090;2023-02-15T09:16:30;2.70;99.90
13606;DHT22;6874;52.084;5.090;2023-02-15T09:18:56;2.80;99.90
13606;DHT22;6874;52.084;5.090;2023-02-15T09:21:33;2.80;99.90
13606;DHT22;6874;52.084;5.090;2023-02-15T09:24:00;2.80;99.90
13606;DHT22;6874;52.084;5.090;2023-02-15T09:26:28;2.90;99.90
13606;DHT22;6874;52.084;5.090;2023-02-15T09:28:56;2.90;99.90
13606;DHT22;6874;52.084;5.090;2023-02-15T09:31:24;2.90;99.90
13606;DHT22;6874;52.084;5.090;2023-02-15T09:33:50;2.90;99.90
13606;DHT22;6874;52.084;5.090;2023-02-15T09:36:25;2.90;99.90
13606;DHT22;6874;52.084;5.090;2023-02-15T09:38:59;2.90;99.90
13606;DHT22;6874;52.084;5.090;2023-02-15T09:44:37;3.00;99.90
13606;DHT22;6874;52.084;5.090;2023-02-15T09:55:24;3.10;99.90
13606;DHT22;6874;52.084;5.090;2023-02-15T10:00:58;3.20;99.90
13606;DHT22;6874;52.084;5.090;2023-02-15T10:03:49;3.20;99.90
13606;DHT22;6874;52.084;5.090;2023-02-15T10:09:36;3.30;99.90
13606;DHT22;6874;52.084;5.090;2023-02-15T10:18:11;3.40;99.90
13606;DHT22;6874;52.084;5.090;2023-02-15T10:29:01;3.50;99.90
13606;DHT22;6874;52.084;5.090;2023-02-15T10:31:37;3.50;99.90
13606;DHT22;6874;52.084;5.090;2023-02-15T10:34:17;3.50;99.90
13606;DHT22;6874;52.084;5.090;2023-02-15T10:36:47;3.50;99.90
13606;DHT22;6874;52.084;5.090;2023-02-15T10:39:34;3.60;99.90
13606;DHT22;6874;52.084;5.090;2023-02-15T10:53:24;3.80;99.90
13606;DHT22;6874;52.084;5.090;2023-02-15T10:58:54;3.90;99.90
13606;DHT22;6874;52.084;5.090;2023-02-15T11:01:41;4.00;99.90
13606;DHT22;6874;52.084;5.090;2023-02-15T11:07:26;4.10;99.90
13606;DHT22;6874;52.084;5.090;2023-02-15T11:12:37;4.20;99.90
13606;DHT22;6874;52.084;5.090;2023-02-15T11:17:45;4.30;99.90
13606;DHT22;6874;52.084;5.090;2023-02-15T11:20:28;4.40;99.90
13606;DHT22;6874;52.084;5.090;2023-02-15T11:22:55;4.40;99.90
13606;DHT22;6874;52.084;5.090;2023-02-15T11:25:30;4.50;99.90
13606;DHT22;6874;52.084;5.090;2023-02-15T11:27:56;4.50;99.90
13606;DHT22;6874;52.084;5.090;2023-02-15T11:30:30;4.60;99.90
13606;DHT22;6874;52.084;5.090;2023-02-15T11:33:00;4.60;99.90
13606;DHT22;6874;52.084;5.090;2023-02-15T11:35:31;4.70;99.90
13606;DHT22;6874;52.084;5.090;2023-02-15T11:38:21;4.80;99.90
13606;DHT22;6874;52.084;5.090;2023-02-15T11:40:51;4.80;99.90
13606;DHT22;6874;52.084;5.090;2023-02-15T11:43:47;4.90;99.90
13606;DHT22;6874;52.084;5.090;2023-02-15T11:46:15;5.00;99.90
13606;DHT22;6874;52.084;5.090;2023-02-15T11:48:41;5.00;99.90
13606;DHT22;6874;52.084;5.090;2023-02-15T11:51:16;5.10;99.90
13606;DHT22;6874;52.084;5.090;2023-02-15T11:53:43;5.20;99.90
13606;DHT22;6874;52.084;5.090;2023-02-15T11:56:21;5.20;99.90
13606;DHT22;6874;52.084;5.090;2023-02-15T11:59:03;5.30;99.90
13606;DHT22;6874;52.084;5.090;2023-02-15T12:07:09;5.50;99.90
13606;DHT22;6874;52.084;5.090;2023-02-15T12:12:27;5.60;99.90
13606;DHT22;6874;52.084;5.090;2023-02-15T12:14:58;5.70;99.90
13606;DHT22;6874;52.084;5.090;2023-02-15T12:18:15;5.80;99.90
13606;DHT22;6874;52.084;5.090;2023-02-15T12:22:52;5.90;99.90
13606;DHT22;6874;52.084;5.090;2023-02-15T12:25:36;6.00;99.90
13606;DHT22;6874;52.084;5.090;2023-02-15T12:28:05;6.10;99.90
13606;DHT22;6874;52.084;5.090;2023-02-15T12:30:42;6.20;99.90
13606;DHT22;6874;52.084;5.090;2023-02-15T12:33:31;6.30;99.90
13606;DHT22;6874;52.084;5.090;2023-02-15T12:36:33;6.40;99.90
13606;DHT22;6874;52.084;5.090;2023-02-15T12:45:03;6.70;99.90
13606;DHT22;6874;52.084;5.090;2023-02-15T12:47:30;6.90;99.90
13606;DHT22;6874;52.084;5.090;2023-02-15T12:50:11;7.00;99.90
13606;DHT22;6874;52.084;5.090;2023-02-15T12:52:43;7.10;99.90
13606;DHT22;6874;52.084;5.090;2023-02-15T12:57:44;7.30;99.90
13606;DHT22;6874;52.084;5.090;2023-02-15T13:02:47;7.50;99.90
13606;DHT22;6874;52.084;5.090;2023-02-15T13:05:38;7.60;99.90
13606;DHT22;6874;52.084;5.090;2023-02-15T13:08:16;7.70;99.90
13606;DHT22;6874;52.084;5.090;2023-02-15T13:13:27;7.80;99.90
13606;DHT22;6874;52.084;5.090;2023-02-15T13:16:15;7.80;99.90
13606;DHT22;6874;52.084;5.090;2023-02-15T13:18:46;7.90;99.90
13606;DHT22;6874;52.084;5.090;2023-02-15T13:21:20;7.90;99.90
13606;DHT22;6874;52.084;5.090;2023-02-15T13:24:00;8.00;99.90
13606;DHT22;6874;52.084;5.090;2023-02-15T13:26:30;8.10;99.90
13606;DHT22;6874;52.084;5.090;2023-02-15T13:28:58;8.10;99.90
13606;DHT22;6874;52.084;5.090;2023-02-15T13:31:28;8.20;99.90
13606;DHT22;6874;52.084;5.090;2023-02-15T13:34:02;8.20;99.90
13606;DHT22;6874;52.084;5.090;2023-02-15T13:36:34;8.30;99.90
13606;DHT22;6874;52.084;5.090;2023-02-15T13:44:42;8.40;99.90
13606;DHT22;6874;52.084;5.090;2023-02-15T13:47:21;8.40;99.90
13606;DHT22;6874;52.084;5.090;2023-02-15T13:55:51;8.50;99.90
13606;DHT22;6874;52.084;5.090;2023-02-15T13:58:45;8.60;99.90
13606;DHT22;6874;52.084;5.090;2023-02-15T14:01:18;8.60;99.90
13606;DHT22;6874;52.084;5.090;2023-02-15T14:07:01;8.60;99.90
13606;DHT22;6874;52.084;5.090;2023-02-15T14:12:48;8.70;99.90
13606;DHT22;6874;52.084;5.090;2023-02-15T14:15:32;8.70;99.90
13606;DHT22;6874;52.084;5.090;2023-02-15T14:20:44;8.80;99.90
13606;DHT22;6874;52.084;5.090;2023-02-15T14:25:47;8.80;99.90
13606;DHT22;6874;52.084;5.090;2023-02-15T14:28:21;8.80;99.90
13606;DHT22;6874;52.084;5.090;2023-02-15T14:30:52;8.80;99.90
13606;DHT22;6874;52.084;5.090;2023-02-15T14:33:38;8.90;99.90
13606;DHT22;6874;52.084;5.090;2023-02-15T14:36:07;8.90;99.90
13606;DHT22;6874;52.084;5.090;2023-02-15T14:41:18;8.90;99.90
13606;DHT22;6874;52.084;5.090;2023-02-15T14:43:55;8.90;99.90
13606;DHT22;6874;52.084;5.090;2023-02-15T14:49:31;9.00;99.90
13606;DHT22;6874;52.084;5.090;2023-02-15T14:52:01;9.00;99.90
13606;DHT22;6874;52.084;5.090;2023-02-15T14:59:27;9.00;99.90
13606;DHT22;6874;52.084;5.090;2023-02-15T15:07:28;9.10;99.90
13606;DHT22;6874;52.084;5.090;2023-02-15T15:12:51;9.00;99.90
13606;DHT22;6874;52.084;5.090;2023-02-15T15:37:43;9.10;99.90
13606;DHT22;6874;52.084;5.090;2023-02-15T15:43:55;9.00;99.90
13606;DHT22;6874;52.084;5.090;2023-02-15T15:46:13;9.00;99.90
13606;DHT22;6874;52.084;5.090;2023-02-15T15:48:45;9.10;99.90
13606;DHT22;6874;52.084;5.090;2023-02-15T15:51:21;9.00;99.90
13606;DHT22;6874;52.084;5.090;2023-02-15T15:53:50;9.10;99.90
13606;DHT22;6874;52.084;5.090;2023-02-15T15:56:21;9.00;99.90
13606;DHT22;6874;52.084;5.090;2023-02-15T15:59:02;9.00;99.90
13606;DHT22;6874;52.084;5.090;2023-02-15T16:01:35;9.00;99.90
13606;DHT22;6874;52.084;5.090;2023-02-15T16:04:10;9.00;99.90
13606;DHT22;6874;52.084;5.090;2023-02-15T16:06:39;9.00;99.90
13606;DHT22;6874;52.084;5.090;2023-02-15T16:09:12;9.00;99.90
13606;DHT22;6874;52.084;5.090;2023-02-15T16:11:41;9.00;99.90
13606;DHT22;6874;52.084;5.090;2023-02-15T16:14:25;9.00;99.90
13606;DHT22;6874;52.084;5.090;2023-02-15T16:16:54;9.00;99.90
13606;DHT22;6874;52.084;5.090;2023-02-15T16:19:41;9.00;99.90
13606;DHT22;6874;52.084;5.090;2023-02-15T16:22:15;9.00;99.90
13606;DHT22;6874;52.084;5.090;2023-02-15T16:27:44;8.90;99.90
13606;DHT22;6874;52.084;5.090;2023-02-15T16:33:17;8.90;99.90
13606;DHT22;6874;52.084;5.090;2023-02-15T16:35:56;8.90;99.90
13606;DHT22;6874;52.084;5.090;2023-02-15T16:41:07;8.80;99.90
13606;DHT22;6874;52.084;5.090;2023-02-15T16:43:33;8.80;99.90
13606;DHT22;6874;52.084;5.090;2023-02-15T16:46:25;8.80;99.90
13606;DHT22;6874;52.084;5.090;2023-02-15T16:48:55;8.80;99.90
13606;DHT22;6874;52.084;5.090;2023-02-15T16:51:28;8.70;99.90
13606;DHT22;6874;52.084;5.090;2023-02-15T16:53:55;8.70;99.90
13606;DHT22;6874;52.084;5.090;2023-02-15T16:56:27;8.70;99.90
13606;DHT22;6874;52.084;5.090;2023-02-15T16:58:55;8.70;99.90
13606;DHT22;6874;52.084;5.090;2023-02-15T17:01:24;8.70;99.90
13606;DHT22;6874;52.084;5.090;2023-02-15T17:04:13;8.60;99.90
13606;DHT22;6874;52.084;5.090;2023-02-15T17:06:39;8.60;99.90
13606;DHT22;6874;52.084;5.090;2023-02-15T17:09:12;8.60;99.90
13606;DHT22;6874;52.084;5.090;2023-02-15T17:11:43;8.60;99.90
13606;DHT22;6874;52.084;5.090;2023-02-15T17:16:54;8.50;99.90
13606;DHT22;6874;52.084;5.090;2023-02-15T17:19:47;8.50;99.90
13606;DHT22;6874;52.084;5.090;2023-02-15T17:22:20;8.50;99.90
13606;DHT22;6874;52.084;5.090;2023-02-15T17:24:48;8.40;99.90
13606;DHT22;6874;52.084;5.090;2023-02-15T17:27:24;8.40;99.90
13606;DHT22;6874;52.084;5.090;2023-02-15T17:29:52;8.40;99.90
13606;DHT22;6874;52.084;5.090;2023-02-15T17:32:26;8.40;99.90
13606;DHT22;6874;52.084;5.090;2023-02-15T17:35:08;8.30;99.90
13606;DHT22;6874;52.084;5.090;2023-02-15T17:37:49;8.30;99.90
13606;DHT22;6874;52.084;5.090;2023-02-15T17:40:21;8.30;99.90
13606;DHT22;6874;52.084;5.090;2023-02-15T17:42:47;8.20;99.90
13606;DHT22;6874;52.084;5.090;2023-02-15T17:45:13;8.30;99.90
13606;DHT22;6874;52.084;5.090;2023-02-15T17:47:42;8.20;99.90
13606;DHT22;6874;52.084;5.090;2023-02-15T17:50:14;8.20;99.90
13606;DHT22;6874;52.084;5.090;2023-02-15T17:52:40;8.20;99.90
13606;DHT22;6874;52.084;5.090;2023-02-15T17:55:14;8.20;99.90
13606;DHT22;6874;52.084;5.090;2023-02-15T17:57:59;8.10;99.90
13606;DHT22;6874;52.084;5.090;2023-02-15T18:00:25;8.10;99.90
13606;DHT22;6874;52.084;5.090;2023-02-15T18:03:10;8.10;99.90
13606;DHT22;6874;52.084;5.090;2023-02-15T18:05:55;8.10;99.90
13606;DHT22;6874;52.084;5.090;2023-02-15T18:08:40;8.00;99.90
13606;DHT22;6874;52.084;5.090;2023-02-15T18:11:24;8.00;99.90
13606;DHT22;6874;52.084;5.090;2023-02-15T18:14:06;8.00;99.90
13606;DHT22;6874;52.084;5.090;2023-02-15T18:16:34;8.00;99.90
13606;DHT22;6874;52.084;5.090;2023-02-15T18:19:02;8.00;99.90
13606;DHT22;6874;52.084;5.090;2023-02-15T18:21:30;8.00;99.90
13606;DHT22;6874;52.084;5.090;2023-02-15T18:23:55;7.90;99.90
13606;DHT22;6874;52.084;5.090;2023-02-15T18:26:22;7.90;99.90
13606;DHT22;6874;52.084;5.090;2023-02-15T18:28:49;7.90;99.90
13606;DHT22;6874;52.084;5.090;2023-02-15T18:31:15;7.90;99.90
13606;DHT22;6874;52.084;5.090;2023-02-15T18:33:44;7.90;99.90
13606;DHT22;6874;52.084;5.090;2023-02-15T18:38:54;7.80;99.90
13606;DHT22;6874;52.084;5.090;2023-02-15T18:41:20;7.80;99.90
13606;DHT22;6874;52.084;5.090;2023-02-15T18:43:47;7.80;99.90
13606;DHT22;6874;52.084;5.090;2023-02-15T18:46:14;7.80;99.90
13606;DHT22;6874;52.084;5.090;2023-02-15T18:48:40;7.80;99.90
13606;DHT22;6874;52.084;5.090;2023-02-15T18:51:16;7.70;99.90
13606;DHT22;6874;52.084;5.090;2023-02-15T18:53:42;7.70;99.90
13606;DHT22;6874;52.084;5.090;2023-02-15T18:56:14;7.70;99.90
13606;DHT22;6874;52.084;5.090;2023-02-15T18:58:40;7.70;99.90
13606;DHT22;6874;52.084;5.090;2023-02-15T19:01:12;7.70;99.90
13606;DHT22;6874;52.084;5.090;2023-02-15T19:03:42;7.60;99.90
13606;DHT22;6874;52.084;5.090;2023-02-15T19:06:10;7.60;99.90
13606;DHT22;6874;52.084;5.090;2023-02-15T19:08:36;7.60;99.90
13606;DHT22;6874;52.084;5.090;2023-02-15T19:11:03;7.60;99.90
13606;DHT22;6874;52.084;5.090;2023-02-15T19:13:28;7.60;99.90
13606;DHT22;6874;52.084;5.090;2023-02-15T19:15:54;7.60;99.90
13606;DHT22;6874;52.084;5.090;2023-02-15T19:18:20;7.60;99.90
13606;DHT22;6874;52.084;5.090;2023-02-15T19:20:45;7.60;99.90
13606;DHT22;6874;52.084;5.090;2023-02-15T19:23:20;7.50;99.90
13606;DHT22;6874;52.084;5.090;2023-02-15T19:25:47;7.50;99.90
13606;DHT22;6874;52.084;5.090;2023-02-15T19:28:31;7.50;99.90
13606;DHT22;6874;52.084;5.090;2023-02-15T19:30:57;7.50;99.90
13606;DHT22;6874;52.084;5.090;2023-02-15T19:33:23;7.50;99.90
13606;DHT22;6874;52.084;5.090;2023-02-15T19:35:51;7.50;99.90
13606;DHT22;6874;52.084;5.090;2023-02-15T19:38:25;7.40;99.90
13606;DHT22;6874;52.084;5.090;2023-02-15T19:40:57;7.50;99.90